createdAt,value
2022-11-07T00:02:17.722Z,62.68
2022-11-07T00:04:46.097Z,62.84
2022-11-07T00:07:14.469Z,62.75
2022-11-07T00:09:43.059Z,62.92
2022-11-07T00:12:11.348Z,62.83
2022-11-07T00:14:40.022Z,62.77
2022-11-07T00:17:09.470Z,62.85
2022-11-07T00:19:37.904Z,62.95
2022-11-07T00:22:06.499Z,62.87
2022-11-07T00:24:35.137Z,62.86
2022-11-07T00:27:03.773Z,63.04
2022-11-07T00:29:32.152Z,62.92
2022-11-07T00:32:00.602Z,63.02
2022-11-07T00:34:29.197Z,63.03
2022-11-07T00:36:57.686Z,63.17
2022-11-07T00:39:26.205Z,63.18
2022-11-07T00:41:54.873Z,63.30
2022-11-07T00:44:23.231Z,63.30
2022-11-07T00:46:51.805Z,63.39
2022-11-07T00:49:20.215Z,63.36
2022-11-07T00:51:48.882Z,63.44
2022-11-07T00:54:17.353Z,63.63
2022-11-07T00:56:45.728Z,63.71
2022-11-07T00:59:14.738Z,63.67
2022-11-07T01:01:43.399Z,63.77
2022-11-07T01:04:32.673Z,63.69
2022-11-07T01:07:02.178Z,63.74
2022-11-07T01:09:30.453Z,63.86
2022-11-07T01:11:59.244Z,64.02
2022-11-07T01:14:27.724Z,64.09
2022-11-07T01:16:56.100Z,64.08
2022-11-07T01:19:24.789Z,64.14
2022-11-07T01:21:53.348Z,64.19
2022-11-07T01:24:21.872Z,64.18
2022-11-07T01:26:52.175Z,64.20
2022-11-07T01:29:20.904Z,64.21
2022-11-07T01:31:49.225Z,64.45
2022-11-07T01:34:18.198Z,64.52
2022-11-07T01:36:46.699Z,64.51
2022-11-07T01:39:15.146Z,64.52
2022-11-07T01:41:43.982Z,64.57
2022-11-07T01:44:12.562Z,64.82
2022-11-07T01:46:43.531Z,64.83
2022-11-07T01:49:17.922Z,64.74
2022-11-07T01:51:52.178Z,64.71
2022-11-07T01:54:24.959Z,64.90
2022-11-07T01:56:57.242Z,64.93
2022-11-07T01:59:29.781Z,64.94
2022-11-07T02:01:59.161Z,65.05
2022-11-07T02:04:31.341Z,65.01
2022-11-07T02:07:08.570Z,65.14
2022-11-07T02:09:37.112Z,65.22
2022-11-07T02:12:06.498Z,65.10
2022-11-07T02:14:34.642Z,65.37
2022-11-07T02:17:03.263Z,65.30
2022-11-07T02:19:34.704Z,65.35
2022-11-07T02:22:13.503Z,65.35
2022-11-07T02:24:42.220Z,65.24
2022-11-07T02:27:17.731Z,65.35
2022-11-07T02:29:49.532Z,65.26
2022-11-07T02:32:17.903Z,65.33
2022-11-07T02:34:46.135Z,65.41
2022-11-07T02:37:24.264Z,65.37
2022-11-07T02:39:53.391Z,65.54
2022-11-07T02:42:22.488Z,65.56
2022-11-07T02:44:52.954Z,65.59
2022-11-07T02:47:21.379Z,65.53
2022-11-07T02:49:49.745Z,65.61
2022-11-07T02:52:18.035Z,65.65
2022-11-07T02:54:46.515Z,65.92
2022-11-07T02:57:15.064Z,65.99
2022-11-07T02:59:43.680Z,65.97
2022-11-07T03:02:11.952Z,66.08
2022-11-07T03:04:43.960Z,65.98
2022-11-07T03:07:15.060Z,66.10
2022-11-07T03:09:43.233Z,65.80
2022-11-07T03:12:11.656Z,66.20
2022-11-07T03:14:39.968Z,66.13
2022-11-07T03:17:09.064Z,66.06
2022-11-07T03:19:37.363Z,66.17
2022-11-07T03:22:05.734Z,66.15
2022-11-07T03:24:34.387Z,66.26
2022-11-07T03:27:02.576Z,66.36
2022-11-07T03:29:30.874Z,66.26
2022-11-07T03:31:59.460Z,66.20
2022-11-07T03:34:27.632Z,66.25
2022-11-07T03:36:56.009Z,66.29
2022-11-07T03:39:26.126Z,66.31
2022-11-07T03:41:54.610Z,66.40
2022-11-07T03:44:23.130Z,66.42
2022-11-07T03:46:51.462Z,66.35
2022-11-07T03:49:19.644Z,66.44
2022-11-07T03:51:48.022Z,66.61
2022-11-07T03:54:16.432Z,66.62
2022-11-07T03:56:44.634Z,66.48
2022-11-07T03:59:12.847Z,66.51
2022-11-07T04:01:41.430Z,66.51
2022-11-07T04:04:09.809Z,66.58
2022-11-07T04:06:38.067Z,66.56
2022-11-07T04:09:06.562Z,66.70
2022-11-07T04:11:53.479Z,66.62
2022-11-07T04:14:40.802Z,66.78
2022-11-07T04:17:20.457Z,66.88
2022-11-07T04:19:51.334Z,66.85
2022-11-07T04:22:19.513Z,66.83
2022-11-07T04:24:48.308Z,66.89
2022-11-07T04:27:37.713Z,66.91
2022-11-07T04:30:23.959Z,67.00
2022-11-07T04:32:58.431Z,67.14
2022-11-07T04:35:30.870Z,67.22
2022-11-07T04:38:00.543Z,67.10
2022-11-07T04:40:29.879Z,67.30
2022-11-07T04:42:58.706Z,67.25
2022-11-07T04:45:26.938Z,67.24
2022-11-07T04:47:55.459Z,67.31
2022-11-07T04:50:23.856Z,67.58
2022-11-07T04:52:52.421Z,67.47
2022-11-07T04:55:25.073Z,67.60
2022-11-07T04:57:53.580Z,67.52
2022-11-07T05:00:22.355Z,67.59
2022-11-07T05:02:51.690Z,67.54
2022-11-07T05:05:20.476Z,67.69
2022-11-07T05:07:48.950Z,67.63
2022-11-07T05:10:26.547Z,67.63
2022-11-07T05:12:56.136Z,67.69
2022-11-07T05:15:24.515Z,67.84
2022-11-07T05:17:53.797Z,67.63
2022-11-07T05:20:22.192Z,67.61
2022-11-07T05:23:09.487Z,67.81
2022-11-07T05:25:39.048Z,67.72
2022-11-07T05:28:07.501Z,67.76
2022-11-07T05:30:38.775Z,67.64
2022-11-07T05:33:08.973Z,67.67
2022-11-07T05:35:37.250Z,67.78
2022-11-07T05:38:06.032Z,67.69
2022-11-07T05:40:39.470Z,67.79
2022-11-07T05:43:10.267Z,67.90
2022-11-07T05:45:39.153Z,67.99
2022-11-07T05:48:13.682Z,67.98
2022-11-07T05:50:42.162Z,68.07
2022-11-07T05:53:10.707Z,68.06
2022-11-07T05:55:39.739Z,68.01
2022-11-07T05:58:12.515Z,68.12
2022-11-07T06:00:41.404Z,68.22
2022-11-07T06:03:10.532Z,68.17
2022-11-07T06:05:39.391Z,68.23
2022-11-07T06:08:10.851Z,68.41
2022-11-07T06:10:41.194Z,68.30
2022-11-07T06:13:13.476Z,68.35
2022-11-07T06:15:44.119Z,68.36
2022-11-07T06:18:18.274Z,68.50
2022-11-07T06:20:47.379Z,68.56
2022-11-07T06:23:16.399Z,68.58
2022-11-07T06:25:44.977Z,68.56
2022-11-07T06:28:15.050Z,68.57
2022-11-07T06:30:44.220Z,68.79
2022-11-07T06:33:16.776Z,68.96
2022-11-07T06:35:46.040Z,68.72
2022-11-07T06:38:15.624Z,68.72
2022-11-07T06:40:44.575Z,68.77
2022-11-07T06:43:20.009Z,68.89
2022-11-07T06:45:48.787Z,68.92
2022-11-07T06:48:17.361Z,68.92
2022-11-07T06:50:45.513Z,69.00
2022-11-07T06:53:14.476Z,69.01
2022-11-07T06:55:43.460Z,69.13
2022-11-07T06:58:11.647Z,69.09
2022-11-07T07:00:40.048Z,68.94
2022-11-07T07:03:08.801Z,68.83
2022-11-07T07:05:37.638Z,69.10
2022-11-07T07:08:08.055Z,69.07
2022-11-07T07:10:44.715Z,68.83
2022-11-07T07:13:14.767Z,68.94
2022-11-07T07:15:51.484Z,68.92
2022-11-07T07:18:20.734Z,69.18
2022-11-07T07:20:50.613Z,69.07
2022-11-07T07:23:20.938Z,69.04
2022-11-07T07:25:49.777Z,68.98
2022-11-07T07:28:18.078Z,68.94
2022-11-07T07:30:51.662Z,69.09
2022-11-07T07:33:21.265Z,69.10
2022-11-07T07:35:49.514Z,69.10
2022-11-07T07:38:18.313Z,68.91
2022-11-07T07:40:47.029Z,68.98
2022-11-07T07:43:15.984Z,68.96
2022-11-07T07:45:44.619Z,68.90
2022-11-07T07:48:12.940Z,69.02
2022-11-07T07:50:41.426Z,68.99
2022-11-07T07:53:10.002Z,69.18
2022-11-07T07:55:38.622Z,69.23
2022-11-07T07:58:06.866Z,69.20
2022-11-07T08:00:35.888Z,69.20
2022-11-07T08:03:10.413Z,69.16
2022-11-07T08:05:39.680Z,69.06
2022-11-07T08:08:08.881Z,69.15
2022-11-07T08:10:42.403Z,68.98
2022-11-07T08:13:11.483Z,69.01
2022-11-07T08:15:40.064Z,69.05
2022-11-07T08:18:08.290Z,69.05
2022-11-07T08:20:36.699Z,69.07
2022-11-07T08:23:14.628Z,69.12
2022-11-07T08:25:52.699Z,68.96
2022-11-07T08:28:23.713Z,68.95
2022-11-07T08:31:18.093Z,69.02
2022-11-07T08:33:46.516Z,68.92
2022-11-07T08:36:15.209Z,69.01
2022-11-07T08:38:43.521Z,68.90
2022-11-07T08:41:12.020Z,68.89
2022-11-07T08:43:40.636Z,69.04
2022-11-07T08:46:09.026Z,68.75
2022-11-07T08:48:37.512Z,68.88
2022-11-07T08:51:06.194Z,68.86
2022-11-07T08:53:34.571Z,68.73
2022-11-07T08:56:04.541Z,68.94
2022-11-07T08:58:34.003Z,68.76
2022-11-07T09:01:06.025Z,68.90
2022-11-07T09:03:45.969Z,68.69
2022-11-07T09:06:16.272Z,68.71
2022-11-07T09:08:45.117Z,68.77
2022-11-07T09:11:16.050Z,68.80
2022-11-07T09:13:44.986Z,68.61
2022-11-07T09:16:13.315Z,68.48
2022-11-07T09:18:41.478Z,68.54
2022-11-07T09:21:09.702Z,68.47
2022-11-07T09:23:37.988Z,68.52
2022-11-07T09:26:07.346Z,68.47
2022-11-07T09:28:36.382Z,68.24
2022-11-07T09:31:06.661Z,68.19
2022-11-07T09:33:35.107Z,68.20
2022-11-07T09:36:05.468Z,68.17
2022-11-07T09:38:33.745Z,68.04
2022-11-07T09:41:10.725Z,68.17
2022-11-07T09:43:50.264Z,68.11
2022-11-07T09:46:34.174Z,67.85
2022-11-07T09:49:14.492Z,67.85
2022-11-07T09:51:47.592Z,67.86
2022-11-07T09:54:22.195Z,67.62
2022-11-07T09:56:51.888Z,67.51
2022-11-07T09:59:27.725Z,67.55
2022-11-07T10:01:56.178Z,67.66
2022-11-07T10:04:26.520Z,67.39
2022-11-07T10:07:38.474Z,67.08
2022-11-07T10:10:26.085Z,67.21
2022-11-07T10:13:17.369Z,67.21
2022-11-07T10:15:54.394Z,67.16
2022-11-07T10:18:41.340Z,67.01
2022-11-07T10:21:39.566Z,66.86
2022-11-07T10:24:29.237Z,66.54
2022-11-07T10:26:58.486Z,66.43
2022-11-07T10:29:44.116Z,66.21
2022-11-07T10:32:17.022Z,65.93
2022-11-07T10:34:57.565Z,65.87
2022-11-07T10:37:26.047Z,65.42
2022-11-07T10:39:54.527Z,65.44
2022-11-07T10:42:30.909Z,65.13
2022-11-07T10:44:59.905Z,65.13
2022-11-07T10:47:28.266Z,64.89
2022-11-07T10:50:02.779Z,64.59
2022-11-07T10:52:31.088Z,64.45
2022-11-07T10:55:17.074Z,63.95
2022-11-07T10:57:51.085Z,63.76
2022-11-07T11:00:24.534Z,63.38
2022-11-07T11:02:54.125Z,63.22
2022-11-07T11:05:40.672Z,63.24
2022-11-07T11:08:18.313Z,62.97
2022-11-07T11:10:48.385Z,62.62
2022-11-07T11:13:25.740Z,62.23
2022-11-07T11:16:00.017Z,62.13
2022-11-07T11:18:31.237Z,61.99
2022-11-07T11:21:06.833Z,61.92
2022-11-07T11:23:37.630Z,61.87
2022-11-07T11:26:09.231Z,61.81
2022-11-07T11:28:48.709Z,61.68
2022-11-07T11:31:32.754Z,61.65
2022-11-07T11:34:19.445Z,61.45
2022-11-07T11:36:57.062Z,61.62
2022-11-07T11:39:37.614Z,61.54
2022-11-07T11:42:12.041Z,61.47
2022-11-07T11:44:45.853Z,61.58
2022-11-07T11:47:34.544Z,61.73
2022-11-07T11:50:03.359Z,61.73
2022-11-07T11:52:32.282Z,61.70
2022-11-07T11:55:01.699Z,61.62
2022-11-07T11:57:46.041Z,61.74
2022-11-07T12:00:22.950Z,61.85
2022-11-07T12:03:16.051Z,61.50
2022-11-07T12:05:53.669Z,60.71
2022-11-07T12:08:50.512Z,59.75
2022-11-07T12:11:25.627Z,58.99
2022-11-07T12:14:21.266Z,58.30
2022-11-07T12:17:29.181Z,56.84
2022-11-07T12:20:15.944Z,55.84
2022-11-07T12:22:53.912Z,55.03
2022-11-07T12:25:26.966Z,54.48
2022-11-07T12:28:14.260Z,53.24
2022-11-07T12:30:48.483Z,52.71
2022-11-07T12:33:38.363Z,51.90
2022-11-07T12:36:37.680Z,50.89
2022-11-07T12:39:42.124Z,51.17
2022-11-07T12:42:21.054Z,50.20
2022-11-07T12:44:52.119Z,49.90
2022-11-07T12:47:37.562Z,50.08
2022-11-07T12:50:30.826Z,50.02
2022-11-07T12:53:37.108Z,49.87
2022-11-07T12:56:13.050Z,50.01
2022-11-07T12:58:44.904Z,50.11
2022-11-07T13:01:15.576Z,49.92
2022-11-07T13:04:02.676Z,50.01
2022-11-07T13:06:35.303Z,50.16
2022-11-07T13:09:15.900Z,50.35
2022-11-07T13:12:17.563Z,50.60
2022-11-07T13:14:46.500Z,50.75
2022-11-07T13:17:24.238Z,50.89
2022-11-07T13:20:24.369Z,51.05
2022-11-07T13:22:58.568Z,51.42
2022-11-07T13:25:32.223Z,51.81
2022-11-07T13:28:04.491Z,51.94
2022-11-07T13:30:38.280Z,52.10
2022-11-07T13:33:24.456Z,52.28
2022-11-07T13:35:55.715Z,52.52
2022-11-07T13:38:26.234Z,52.82
2022-11-07T13:41:04.144Z,53.08
2022-11-07T13:43:38.299Z,53.33
2022-11-07T13:46:11.742Z,53.50
2022-11-07T13:48:51.896Z,53.72
2022-11-07T13:51:34.198Z,53.97
2022-11-07T13:54:11.593Z,54.30
2022-11-07T13:56:45.962Z,54.46
2022-11-07T13:59:36.935Z,54.67
2022-11-07T14:02:06.168Z,54.99
2022-11-07T14:04:40.622Z,55.09
2022-11-07T14:07:26.367Z,55.31
2022-11-07T14:09:58.946Z,55.61
2022-11-07T14:12:28.922Z,55.73
2022-11-07T14:14:59.157Z,55.99
2022-11-07T14:17:36.572Z,56.12
2022-11-07T14:20:19.786Z,56.34
2022-11-07T14:22:52.151Z,56.49
2022-11-07T14:25:32.848Z,56.64
2022-11-07T14:28:02.090Z,56.87
2022-11-07T14:30:31.835Z,57.06
2022-11-07T14:33:02.561Z,57.20
2022-11-07T14:35:35.404Z,57.44
2022-11-07T14:38:12.060Z,57.51
2022-11-07T14:40:41.709Z,57.64
2022-11-07T14:43:18.164Z,57.82
2022-11-07T14:46:11.349Z,57.98
2022-11-07T14:48:36.648Z,58.07
2022-11-07T14:51:05.548Z,58.27
2022-11-07T14:53:42.546Z,58.47
2022-11-07T14:56:15.438Z,58.79
2022-11-07T14:58:44.074Z,58.72
2022-11-07T15:01:14.828Z,58.89
2022-11-07T15:03:57.634Z,59.19
2022-11-07T15:06:35.757Z,59.32
2022-11-07T15:09:07.075Z,59.48
2022-11-07T15:11:38.321Z,59.56
2022-11-07T15:14:22.387Z,59.67
2022-11-07T15:16:51.981Z,59.79
2022-11-07T15:19:23.025Z,59.92
2022-11-07T15:22:01.348Z,60.03
2022-11-07T15:24:42.169Z,60.28
2022-11-07T15:27:13.659Z,60.35
2022-11-07T15:29:53.701Z,60.40
2022-11-07T15:32:24.867Z,60.71
2022-11-07T15:35:23.319Z,60.79
2022-11-07T15:37:56.722Z,60.92
2022-11-07T15:40:26.758Z,61.16
2022-11-07T15:42:55.422Z,61.24
2022-11-07T15:45:24.288Z,61.28
2022-11-07T15:47:52.795Z,61.27
2022-11-07T15:50:27.197Z,61.33
2022-11-07T15:52:55.503Z,61.53
2022-11-07T15:55:24.481Z,61.64
2022-11-07T15:57:54.703Z,61.70
2022-11-07T16:00:25.383Z,61.91
2022-11-07T16:02:54.254Z,61.83
2022-11-07T16:05:22.718Z,61.98
2022-11-07T16:07:51.014Z,62.18
2022-11-07T16:10:25.289Z,62.22
2022-11-07T16:12:54.303Z,62.22
2022-11-07T16:15:25.237Z,62.35
2022-11-07T16:17:53.432Z,62.44
2022-11-07T16:20:23.505Z,62.55
2022-11-07T16:22:52.248Z,62.49
2022-11-07T16:25:24.694Z,62.74
2022-11-07T16:27:54.798Z,62.74
2022-11-07T16:30:23.154Z,62.84
2022-11-07T16:32:51.457Z,63.04
2022-11-07T16:35:20.142Z,62.96
2022-11-07T16:37:48.831Z,62.99
2022-11-07T16:40:19.674Z,63.20
2022-11-07T16:42:48.252Z,63.22
2022-11-07T16:45:20.599Z,63.28
2022-11-07T16:47:48.920Z,63.38
2022-11-07T16:50:17.599Z,63.42
2022-11-07T16:52:45.789Z,63.57
2022-11-07T16:55:16.212Z,63.55
2022-11-07T16:57:44.964Z,63.62
2022-11-07T17:00:19.338Z,63.74
2022-11-07T17:02:48.288Z,63.93
2022-11-07T17:05:16.915Z,63.95
2022-11-07T17:07:45.294Z,63.97
2022-11-07T17:10:17.010Z,64.04
2022-11-07T17:12:45.209Z,64.03
2022-11-07T17:15:14.257Z,63.99
2022-11-07T17:17:42.544Z,64.11
2022-11-07T17:20:50.023Z,64.26
2022-11-07T17:23:10.971Z,64.39
2022-11-07T17:25:40.184Z,64.38
2022-11-07T17:28:09.743Z,64.48
2022-11-07T17:30:38.533Z,64.49
2022-11-07T17:33:06.848Z,64.54
2022-11-07T17:35:36.516Z,64.64
2022-11-07T17:38:05.608Z,64.63
2022-11-07T17:40:34.738Z,64.61
2022-11-07T17:43:03.177Z,64.69
2022-11-07T17:45:31.469Z,64.81
2022-11-07T17:48:00.051Z,64.57
2022-11-07T17:50:28.295Z,64.73
2022-11-07T17:52:56.723Z,64.65
2022-11-07T17:55:28.866Z,64.84
2022-11-07T17:57:57.312Z,64.79
2022-11-07T18:00:27.485Z,64.62
2022-11-07T18:02:55.761Z,64.82
2022-11-07T18:05:31.747Z,64.92
2022-11-07T18:08:01.816Z,64.81
2022-11-07T18:10:30.351Z,64.84
2022-11-07T18:12:59.176Z,64.85
2022-11-07T18:15:27.464Z,64.83
2022-11-07T18:17:56.066Z,65.10
2022-11-07T18:20:24.397Z,65.16
2022-11-07T18:22:52.610Z,65.17
2022-11-07T18:25:21.156Z,65.18
2022-11-07T18:27:49.402Z,65.27
2022-11-07T18:30:17.826Z,65.31
2022-11-07T18:32:46.088Z,65.38
2022-11-07T18:35:16.846Z,65.20
2022-11-07T18:37:45.121Z,65.40
2022-11-07T18:40:14.422Z,65.50
2022-11-07T18:42:44.547Z,65.40
2022-11-07T18:45:13.962Z,65.41
2022-11-07T18:47:42.390Z,65.48
2022-11-07T18:50:11.416Z,65.48
2022-11-07T18:52:39.907Z,65.58
2022-11-07T18:55:09.705Z,65.60
2022-11-07T18:57:41.687Z,65.58
2022-11-07T19:00:13.581Z,65.68
2022-11-07T19:02:42.844Z,65.65
2022-11-07T19:05:11.076Z,65.68
2022-11-07T19:07:43.067Z,65.70
2022-11-07T19:10:12.879Z,65.71
2022-11-07T19:12:41.896Z,65.73
2022-11-07T19:15:10.791Z,65.80
2022-11-07T19:17:40.062Z,65.78
2022-11-07T19:20:09.387Z,65.79
2022-11-07T19:22:37.638Z,65.90
2022-11-07T19:25:06.960Z,65.98
2022-11-07T19:27:35.521Z,65.99
2022-11-07T19:30:06.373Z,65.96
2022-11-07T19:32:35.355Z,65.95
2022-11-07T19:35:07.420Z,65.92
2022-11-07T19:37:37.254Z,66.03
2022-11-07T19:40:06.831Z,66.11
2022-11-07T19:42:35.518Z,66.10
2022-11-07T19:45:04.428Z,66.15
2022-11-07T19:47:33.198Z,66.25
2022-11-07T19:50:01.804Z,66.35
2022-11-07T19:52:30.386Z,66.36
2022-11-07T19:54:59.139Z,66.24
2022-11-07T19:57:27.328Z,66.39
2022-11-07T19:59:55.826Z,66.54
2022-11-07T20:02:32.908Z,66.51
2022-11-07T20:05:01.796Z,66.66
2022-11-07T20:07:30.480Z,66.61
2022-11-07T20:09:59.045Z,66.51
2022-11-07T20:12:27.632Z,66.65
2022-11-07T20:14:56.315Z,66.61
2022-11-07T20:17:24.447Z,66.80
2022-11-07T20:19:52.751Z,66.68
2022-11-07T20:22:21.653Z,66.79
2022-11-07T20:24:50.852Z,66.76
2022-11-07T20:27:19.333Z,66.88
2022-11-07T20:29:48.080Z,66.97
2022-11-07T20:32:17.169Z,66.96
2022-11-07T20:34:48.765Z,66.90
2022-11-07T20:37:21.725Z,66.87
2022-11-07T20:39:50.776Z,66.88
2022-11-07T20:42:18.991Z,66.97
2022-11-07T20:44:50.066Z,66.97
2022-11-07T20:47:18.442Z,66.96
2022-11-07T20:49:46.720Z,67.15
2022-11-07T20:52:15.130Z,67.12
2022-11-07T20:54:43.464Z,67.18
2022-11-07T20:57:11.749Z,67.17
2022-11-07T20:59:42.103Z,67.15
2022-11-07T21:02:11.799Z,67.24
2022-11-07T21:05:03.302Z,67.25
2022-11-07T21:07:28.713Z,67.30
2022-11-07T21:09:57.155Z,67.23
2022-11-07T21:12:25.419Z,67.36
2022-11-07T21:14:54.868Z,67.32
2022-11-07T21:17:23.068Z,67.10
2022-11-07T21:19:51.294Z,67.25
2022-11-07T21:22:19.500Z,67.40
2022-11-07T21:24:47.974Z,67.39
2022-11-07T21:27:16.660Z,67.42
2022-11-07T21:29:45.093Z,67.27
2022-11-07T21:32:13.298Z,67.46
2022-11-07T21:34:42.864Z,67.52
2022-11-07T21:37:11.200Z,67.44
2022-11-07T21:39:39.472Z,67.51
2022-11-07T21:42:07.952Z,67.57
2022-11-07T21:44:36.285Z,67.60
2022-11-07T21:47:04.709Z,67.58
2022-11-07T21:49:33.261Z,67.65
2022-11-07T21:52:01.915Z,67.70
2022-11-07T21:54:30.253Z,67.59
2022-11-07T21:57:00.382Z,67.68
2022-11-07T21:59:29.194Z,67.72
2022-11-07T22:01:57.767Z,67.79
